Schedule Details


Flight Number: CTN480
Departure: Franjo Tudman (LDZA) at 08:35
Arrival: Kastrup (EKCH) at 10:30
Route: PETOV DCT TISKO DCT OKF L858 KOMUR M748 HDO UM725 GERGA T239 PEROM T298 MONAK

Weather Information
LDZA 112230Z 25014KT CAVOK 19/10 Q1007 BECMG 24008KT
EKCH 112220Z AUTO 35016KT 9999 BKN081/// BKN100/// 14/10 Q1004 NOSIG
Schedule Frequency

Route Map